Time;durP1;ratioP1;P1;durP2;ratioP2;P2;SDS_P1;SDS_P2;PMS_P1;PMS_P2;Temp;Humidity;BMP_temperature;BMP_pressure;BME280_temperature;BME280_humidity;BME280_pressure;Samples;Min_cycle;Max_cycle;Signal;HPM_P1;HPM_P2
2022/10/28 00:00:48;;;;;;;;;;;;;;;;;;4949741;28;20386;-84
2022/10/28 00:03:13;;;;;;;;;;;;;;;;;;4960035;28;19925;-85
2022/10/28 00:05:38;;;;;;;;;;;;;;;;;;4953179;28;20418;-84
2022/10/28 00:08:04;;;;;;;;;;;;;;;;;;4925142;28;19925;-85
2022/10/28 00:10:29;;;;;;;;;;;;;;;;;;4970695;28;19921;-84
2022/10/28 00:12:54;;;;;;;;;;;;;;;;;;4973630;28;20329;-85
2022/10/28 00:15:20;;;;;;;;;;;;;;;;;;4966038;28;19918;-85
2022/10/28 00:17:45;;;;;;;;;;;;;;;;;;4966450;28;19969;-84
2022/10/28 00:20:11;;;;;;;;;;;;;;;;;;4937305;28;19920;-85
2022/10/28 00:22:36;;;;;;;;;;;;;;;;;;4948297;29;20029;-85
2022/10/28 00:25:01;;;;;;;;;;;;;;;;;;4932747;28;20005;-82
2022/10/28 00:27:28;;;;;;;;;;;;;;;;;;4960716;28;19925;-83
2022/10/28 00:29:53;;;;;;;;;;;;;;;;;;4969740;28;19914;-84
2022/10/28 00:32:19;;;;;;;;;;;;;;;;;;4953593;28;19929;-83
2022/10/28 00:34:44;;;;;;;;;;;;;;;;;;4963467;28;20452;-83
2022/10/28 00:37:10;;;;;;;;;;;;;;;;;;4933213;28;20317;-82
2022/10/28 00:39:35;;;;;;;;;;;;;;;;;;4957046;28;20014;-82
2022/10/28 00:42:05;;;;;;;;;;;;;;;;;;4952407;28;20374;-84
2022/10/28 00:44:31;;;;;;;;;;;;;;;;;;4955376;28;19915;-82
2022/10/28 00:46:56;;;;;;;;;;;;;;;;;;4940208;28;19918;-83
2022/10/28 00:49:22;;;;;;;;;;;;;;;;;;4945062;29;19942;-83
2022/10/28 00:51:47;;;;;;;;;;;;;;;;;;4953894;28;19921;-84
2022/10/28 00:54:12;;;;;;;;;;;;;;;;;;4968624;28;19922;-83
2022/10/28 00:56:38;;;;;;;;;;;;;;;;;;4937542;29;20009;-82
2022/10/28 00:59:03;;;;;;;;;;;;;;;;;;4965208;28;19918;-83
2022/10/28 01:01:28;;;;;;;;;;;;;;;;;;4969045;28;20385;-82
2022/10/28 01:03:54;;;;;;;;;;;;;;;;;;4974472;28;19910;-82
2022/10/28 01:06:19;;;;;;;;;;;;;;;;;;4968074;28;19915;-82
2022/10/28 01:08:44;;;;;;;;;;;;;;;;;;4976826;28;20009;-82
2022/10/28 01:11:10;;;;;;;;;;;;;;;;;;4946022;29;19926;-82
2022/10/28 01:13:35;;;;;;;;;;;;;;;;;;4962751;28;19914;-83
2022/10/28 01:16:00;;;;;;;;;;;;;;;;;;4964711;28;19924;-82
2022/10/28 01:18:26;;;;;;;;;;;;;;;;;;4974265;28;19918;-81
2022/10/28 01:20:51;;;;;;;;;;;;;;;;;;4979072;28;20377;-83
2022/10/28 01:23:16;;;;;;;;;;;;;;;;;;4975230;28;19950;-82
2022/10/28 01:25:42;;;;;;;;;;;;;;;;;;4970370;28;19914;-82
2022/10/28 01:28:07;;;;;;;;;;;;;;;;;;4975392;28;19946;-82
2022/10/28 01:30:32;;;;;;;;;;;;;;;;;;4975202;28;20335;-82
2022/10/28 01:32:58;;;;;;;;;;;;;;;;;;4967492;28;19914;-82
2022/10/28 01:35:23;;;;;;;;;;;;;;;;;;4983120;28;19972;-82
2022/10/28 01:37:48;;;;;;;;;;;;;;;;;;4975557;28;19918;-83
2022/10/28 01:40:14;;;;;;;;;;;;;;;;;;4939737;28;19914;-82
2022/10/28 01:42:39;;;;;;;;;;;;;;;;;;4971925;28;19914;-83
2022/10/28 01:45:04;;;;;;;;;;;;;;;;;;4976366;28;20290;-83
2022/10/28 01:47:30;;;;;;;;;;;;;;;;;;4947713;29;19925;-83
2022/10/28 01:49:55;;;;;;;;;;;;;;;;;;4956712;29;20208;-84
2022/10/28 01:52:21;;;;;;;;;;;;;;;;;;4963374;28;20265;-83
2022/10/28 01:54:46;;;;;;;;;;;;;;;;;;4977994;28;20293;-84
2022/10/28 01:57:11;;;;;;;;;;;;;;;;;;4995125;28;19928;-85
2022/10/28 01:59:37;;;;;;;;;;;;;;;;;;4984641;28;20008;-85
2022/10/28 02:02:02;;;;;;;;;;;;;;;;;;4975816;28;20340;-83
2022/10/28 02:04:28;;;;;;;;;;;;;;;;;;4958055;28;20009;-85
2022/10/28 02:06:53;;;;;;;;;;;;;;;;;;4975873;28;19914;-85
2022/10/28 02:09:18;;;;;;;;;;;;;;;;;;4958194;28;19914;-83
2022/10/28 02:11:44;;;;;;;;;;;;;;;;;;4958521;28;20308;-83
2022/10/28 02:14:12;;;;;;;;;;;;;;;;;;4957406;28;20005;-84
2022/10/28 02:16:37;;;;;;;;;;;;;;;;;;4961286;28;20009;-85
2022/10/28 02:19:02;;;;;;;;;;;;;;;;;;4982712;28;19925;-86
2022/10/28 02:21:28;;;;;;;;;;;;;;;;;;4963205;28;20409;-85
2022/10/28 02:23:53;;;;;;;;;;;;;;;;;;4970167;28;19921;-85
2022/10/28 02:26:18;;;;;;;;;;;;;;;;;;4964742;28;19975;-84
2022/10/28 02:28:44;;;;;;;;;;;;;;;;;;4928154;29;19969;-84
2022/10/28 02:31:09;;;;;;;;;;;;;;;;;;4929629;29;19973;-84
2022/10/28 02:33:34;;;;;;;;;;;;;;;;;;4945011;29;19921;-84
2022/10/28 02:36:00;;;;;;;;;;;;;;;;;;4949822;29;19961;-84
2022/10/28 02:38:25;;;;;;;;;;;;;;;;;;4957976;28;20386;-86
2022/10/28 02:40:50;;;;;;;;;;;;;;;;;;4958396;29;19968;-85
2022/10/28 02:43:16;;;;;;;;;;;;;;;;;;4969196;28;19914;-85
2022/10/28 02:45:41;;;;;;;;;;;;;;;;;;4944549;28;19914;-85
2022/10/28 02:48:06;;;;;;;;;;;;;;;;;;4943757;28;19920;-85
2022/10/28 02:50:32;;;;;;;;;;;;;;;;;;4959182;28;19977;-84
2022/10/28 02:52:57;;;;;;;;;;;;;;;;;;4975589;28;19914;-85
2022/10/28 02:55:22;;;;;;;;;;;;;;;;;;4975320;28;20421;-84
2022/10/28 02:57:48;;;;;;;;;;;;;;;;;;4958305;28;19922;-84
2022/10/28 03:00:13;;;;;;;;;;;;;;;;;;4974576;28;20294;-83
2022/10/28 03:02:38;;;;;;;;;;;;;;;;;;4957092;28;20499;-84
2022/10/28 03:05:04;;;;;;;;;;;;;;;;;;4974703;28;19914;-83
2022/10/28 03:07:29;;;;;;;;;;;;;;;;;;4957207;28;19937;-83
2022/10/28 03:09:54;;;;;;;;;;;;;;;;;;4941153;28;20026;-82
2022/10/28 03:12:20;;;;;;;;;;;;;;;;;;4957004;28;20293;-83
2022/10/28 03:14:45;;;;;;;;;;;;;;;;;;4957042;28;19957;-83
2022/10/28 03:19:40;;;;;;;;;;;;;;;;;;4951903;29;19926;-79
2022/10/28 03:22:05;;;;;;;;;;;;;;;;;;4954920;29;19922;-79
2022/10/28 03:24:30;;;;;;;;;;;;;;;;;;4953986;28;19919;-78
2022/10/28 03:26:56;;;;;;;;;;;;;;;;;;4937814;29;19914;-79
2022/10/28 03:29:21;;;;;;;;;;;;;;;;;;4954847;29;19915;-78
2022/10/28 03:31:47;;;;;;;;;;;;;;;;;;4956128;28;19934;-79
2022/10/28 03:34:12;;;;;;;;;;;;;;;;;;4973362;28;19918;-79
2022/10/28 03:36:37;;;;;;;;;;;;;;;;;;4937082;29;19925;-79
2022/10/28 03:39:03;;;;;;;;;;;;;;;;;;4937306;29;19946;-78
2022/10/28 03:41:28;;;;;;;;;;;;;;;;;;4953528;29;19915;-78
2022/10/28 03:43:53;;;;;;;;;;;;;;;;;;4952740;29;19966;-77
2022/10/28 03:46:19;;;;;;;;;;;;;;;;;;4937263;29;19914;-78
2022/10/28 03:48:44;;;;;;;;;;;;;;;;;;4966606;28;19914;-78
2022/10/28 03:51:10;;;;;;;;;;;;;;;;;;4973889;28;19914;-77
2022/10/28 03:53:35;;;;;;;;;;;;;;;;;;4956520;28;19921;-78
2022/10/28 03:56:01;;;;;;;;;;;;;;;;;;4974184;28;20428;-78
2022/10/28 03:58:26;;;;;;;;;;;;;;;;;;4940610;28;20364;-78
2022/10/28 04:00:52;;;;;;;;;;;;;;;;;;4973915;28;19918;-78
2022/10/28 04:03:17;;;;;;;;;;;;;;;;;;4972212;28;20063;-79
2022/10/28 04:05:42;;;;;;;;;;;;;;;;;;4940302;28;19925;-76
2022/10/28 04:08:08;;;;;;;;;;;;;;;;;;4973266;28;19921;-78
2022/10/28 04:10:33;;;;;;;;;;;;;;;;;;4956414;28;19918;-79
2022/10/28 04:12:59;;;;;;;;;;;;;;;;;;4973157;28;19914;-79
2022/10/28 04:15:24;;;;;;;;;;;;;;;;;;4961596;28;20421;-77
2022/10/28 04:17:50;;;;;;;;;;;;;;;;;;4980797;28;19918;-78
2022/10/28 04:20:15;;;;;;;;;;;;;;;;;;4959802;28;20325;-77
2022/10/28 04:22:40;;;;;;;;;;;;;;;;;;4952122;29;20354;-79
2022/10/28 04:25:06;;;;;;;;;;;;;;;;;;4953944;29;19961;-80
2022/10/28 04:27:31;;;;;;;;;;;;;;;;;;4936904;29;20363;-78
2022/10/28 04:29:57;;;;;;;;;;;;;;;;;;4936616;29;20443;-78
2022/10/28 04:32:22;;;;;;;;;;;;;;;;;;4953395;29;20423;-79
2022/10/28 04:34:47;;;;;;;;;;;;;;;;;;4937847;29;19969;-79
2022/10/28 04:37:13;;;;;;;;;;;;;;;;;;4932683;29;19965;-79
2022/10/28 04:39:38;;;;;;;;;;;;;;;;;;4938513;29;20326;-77
2022/10/28 04:42:04;;;;;;;;;;;;;;;;;;4937245;29;20317;-78
2022/10/28 04:44:29;;;;;;;;;;;;;;;;;;4937084;29;19953;-77
2022/10/28 04:46:55;;;;;;;;;;;;;;;;;;4938840;29;19922;-78
2022/10/28 04:49:20;;;;;;;;;;;;;;;;;;4921575;29;19915;-78
2022/10/28 04:51:45;;;;;;;;;;;;;;;;;;4921444;29;19915;-79
2022/10/28 04:54:11;;;;;;;;;;;;;;;;;;4964930;28;20295;-78
2022/10/28 04:56:36;;;;;;;;;;;;;;;;;;4960333;28;19969;-78
2022/10/28 04:59:02;;;;;;;;;;;;;;;;;;4977339;28;20000;-78
2022/10/28 05:01:27;;;;;;;;;;;;;;;;;;4959910;28;19981;-78
2022/10/28 05:03:53;;;;;;;;;;;;;;;;;;4959553;28;20373;-79
2022/10/28 05:06:18;;;;;;;;;;;;;;;;;;4976399;28;19984;-79
2022/10/28 05:08:44;;;;;;;;;;;;;;;;;;4959460;28;20012;-77
2022/10/28 05:11:09;;;;;;;;;;;;;;;;;;4958702;28;20337;-79
2022/10/28 05:13:34;;;;;;;;;;;;;;;;;;4976228;28;19984;-79
2022/10/28 05:16:00;;;;;;;;;;;;;;;;;;4959054;28;20295;-80
2022/10/28 05:18:25;;;;;;;;;;;;;;;;;;4958927;28;20429;-78
2022/10/28 05:20:53;;;;;;;;;;;;;;;;;;4959591;28;19961;-78
2022/10/28 05:23:19;;;;;;;;;;;;;;;;;;4959682;28;19984;-76
2022/10/28 05:25:44;;;;;;;;;;;;;;;;;;4959634;28;20393;-79
2022/10/28 05:28:09;;;;;;;;;;;;;;;;;;4942974;28;19960;-77
2022/10/28 05:30:36;;;;;;;;;;;;;;;;;;4943124;28;19918;-80
2022/10/28 05:33:02;;;;;;;;;;;;;;;;;;4942584;28;19914;-80
2022/10/28 05:35:27;;;;;;;;;;;;;;;;;;4939728;29;20343;-79
2022/10/28 05:37:52;;;;;;;;;;;;;;;;;;4956858;29;20719;-79
2022/10/28 05:40:18;;;;;;;;;;;;;;;;;;4957125;29;19922;-81
2022/10/28 05:42:43;;;;;;;;;;;;;;;;;;4958552;28;19921;-79
2022/10/28 05:45:09;;;;;;;;;;;;;;;;;;4977208;28;19914;-79
2022/10/28 05:47:34;;;;;;;;;;;;;;;;;;4943029;28;20302;-78
2022/10/28 05:50:00;;;;;;;;;;;;;;;;;;4976419;28;20385;-78
2022/10/28 05:52:25;;;;;;;;;;;;;;;;;;4942826;28;19917;-77
2022/10/28 05:54:51;;;;;;;;;;;;;;;;;;4975896;28;20302;-79
2022/10/28 05:57:16;;;;;;;;;;;;;;;;;;4958335;28;19917;-79
2022/10/28 05:59:41;;;;;;;;;;;;;;;;;;4954839;29;20378;-79
2022/10/28 06:02:07;;;;;;;;;;;;;;;;;;4939173;29;20393;-79
2022/10/28 06:04:32;;;;;;;;;;;;;;;;;;4954396;29;19918;-79
2022/10/28 06:06:58;;;;;;;;;;;;;;;;;;4938877;29;19919;-78
2022/10/28 06:09:23;;;;;;;;;;;;;;;;;;4938729;29;19915;-79
2022/10/28 06:11:49;;;;;;;;;;;;;;;;;;4956254;29;19915;-80
2022/10/28 06:14:14;;;;;;;;;;;;;;;;;;4938464;29;20405;-79
2022/10/28 06:16:40;;;;;;;;;;;;;;;;;;4970617;28;19918;-78
2022/10/28 06:19:05;;;;;;;;;;;;;;;;;;4975117;28;19918;-78
2022/10/28 06:21:31;;;;;;;;;;;;;;;;;;4957821;28;19922;-79
2022/10/28 06:23:57;;;;;;;;;;;;;;;;;;4941791;28;19920;-79
2022/10/28 06:26:22;;;;;;;;;;;;;;;;;;4957822;28;19922;-79
2022/10/28 06:28:48;;;;;;;;;;;;;;;;;;4958079;28;20024;-77
2022/10/28 06:31:13;;;;;;;;;;;;;;;;;;4956947;28;20345;-77
2022/10/28 06:33:39;;;;;;;;;;;;;;;;;;4957425;28;19914;-78
2022/10/28 06:36:04;;;;;;;;;;;;;;;;;;4938395;29;19919;-78
2022/10/28 06:38:30;;;;;;;;;;;;;;;;;;4938291;29;19919;-78
2022/10/28 06:40:55;;;;;;;;;;;;;;;;;;4954330;29;19937;-81
2022/10/28 06:43:21;;;;;;;;;;;;;;;;;;4954809;29;19914;-79
2022/10/28 06:45:52;;;;;;;;;;;;;;;;;;4938468;29;19982;-80
2022/10/28 06:48:18;;;;;;;;;;;;;;;;;;4954333;29;19914;-78
2022/10/28 06:50:43;;;;;;;;;;;;;;;;;;4955333;28;19921;-78
2022/10/28 06:53:09;;;;;;;;;;;;;;;;;;4937964;29;20354;-78
2022/10/28 06:55:34;;;;;;;;;;;;;;;;;;4938464;29;19915;-77
2022/10/28 06:58:00;;;;;;;;;;;;;;;;;;4937769;29;19918;-78
2022/10/28 07:00:25;;;;;;;;;;;;;;;;;;4954207;28;20080;-80
2022/10/28 07:02:51;;;;;;;;;;;;;;;;;;4937792;29;19911;-78
2022/10/28 07:05:16;;;;;;;;;;;;;;;;;;4932154;29;20009;-79
2022/10/28 07:07:42;;;;;;;;;;;;;;;;;;4918880;29;20018;-78
2022/10/28 07:10:07;;;;;;;;;;;;;;;;;;4919272;29;19914;-80
2022/10/28 07:12:33;;;;;;;;;;;;;;;;;;4919065;29;19919;-81
2022/10/28 07:14:58;;;;;;;;;;;;;;;;;;4919655;29;20112;-81
2022/10/28 07:17:24;;;;;;;;;;;;;;;;;;4934545;29;20300;-79
2022/10/28 07:19:49;;;;;;;;;;;;;;;;;;4919371;29;19919;-81
2022/10/28 07:22:15;;;;;;;;;;;;;;;;;;4943774;28;19955;-79
2022/10/28 07:24:40;;;;;;;;;;;;;;;;;;4956788;28;19915;-79
2022/10/28 07:27:06;;;;;;;;;;;;;;;;;;4957152;28;19914;-79
2022/10/28 07:29:31;;;;;;;;;;;;;;;;;;4956956;28;19914;-79
2022/10/28 07:31:57;;;;;;;;;;;;;;;;;;4974130;28;19961;-79
2022/10/28 07:34:22;;;;;;;;;;;;;;;;;;4973979;28;20292;-79
2022/10/28 07:36:48;;;;;;;;;;;;;;;;;;4958688;28;20346;-80
2022/10/28 07:39:14;;;;;;;;;;;;;;;;;;4948899;28;20405;-78
2022/10/28 07:41:39;;;;;;;;;;;;;;;;;;4955292;29;20437;-79
2022/10/28 07:44:05;;;;;;;;;;;;;;;;;;4953627;29;19964;-79
2022/10/28 07:46:31;;;;;;;;;;;;;;;;;;4954875;29;19954;-80
2022/10/28 07:48:56;;;;;;;;;;;;;;;;;;4953467;29;19968;-80
2022/10/28 07:51:22;;;;;;;;;;;;;;;;;;4954793;29;20554;-80
2022/10/28 07:53:47;;;;;;;;;;;;;;;;;;4944170;29;19921;-80
2022/10/28 07:56:13;;;;;;;;;;;;;;;;;;4935808;29;20309;-80
2022/10/28 07:58:38;;;;;;;;;;;;;;;;;;4935772;29;19918;-80
2022/10/28 08:01:04;;;;;;;;;;;;;;;;;;4918236;29;19922;-80
2022/10/28 08:03:29;;;;;;;;;;;;;;;;;;4918159;29;19922;-81
2022/10/28 08:05:54;;;;;;;;;;;;;;;;;;4935309;29;20413;-79
2022/10/28 08:08:20;;;;;;;;;;;;;;;;;;4934303;29;19922;-78
2022/10/28 08:10:45;;;;;;;;;;;;;;;;;;4935232;28;20275;-78
2022/10/28 08:13:11;;;;;;;;;;;;;;;;;;4955976;28;20305;-80
2022/10/28 08:15:37;;;;;;;;;;;;;;;;;;4973400;28;20290;-79
2022/10/28 08:18:02;;;;;;;;;;;;;;;;;;4973330;28;20297;-79
2022/10/28 08:20:28;;;;;;;;;;;;;;;;;;4940135;28;20290;-79
2022/10/28 08:22:53;;;;;;;;;;;;;;;;;;4955874;28;20294;-80
2022/10/28 08:25:19;;;;;;;;;;;;;;;;;;4973768;28;20357;-82
2022/10/28 08:27:44;;;;;;;;;;;;;;;;;;4952741;29;20113;-79
2022/10/28 08:30:10;;;;;;;;;;;;;;;;;;4952570;29;20186;-79
2022/10/28 08:32:35;;;;;;;;;;;;;;;;;;4936420;29;20281;-78
2022/10/28 08:35:00;;;;;;;;;;;;;;;;;;4953695;29;20350;-79
2022/10/28 08:37:26;;;;;;;;;;;;;;;;;;4936527;29;19945;-79
2022/10/28 08:39:52;;;;;;;;;;;;;;;;;;4953769;29;20081;-79
2022/10/28 08:42:18;;;;;;;;;;;;;;;;;;4951620;29;19981;-79
2022/10/28 08:44:43;;;;;;;;;;;;;;;;;;4941529;28;19914;-82
2022/10/28 08:47:12;;;;;;;;;;;;;;;;;;4946941;28;19929;-87
2022/10/28 08:49:39;;;;;;;;;;;;;;;;;;4942762;28;19949;-86
2022/10/28 08:52:09;;;;;;;;;;;;;;;;;;4951425;28;19960;-86
2022/10/28 08:54:34;;;;;;;;;;;;;;;;;;4961105;28;20278;-86
2022/10/28 08:57:00;;;;;;;;;;;;;;;;;;4969862;28;19906;-86
2022/10/28 08:59:27;;;;;;;;;;;;;;;;;;4938927;28;19910;-86
2022/10/28 09:01:56;;;;;;;;;;;;;;;;;;4948842;28;19922;-86
2022/10/28 09:04:40;;;;;;;;;;;;;;;;;;4945597;28;19934;-83
2022/10/28 09:07:26;;;;;;;;;;;;;;;;;;4941183;28;19953;-85
2022/10/28 09:09:53;;;;;;;;;;;;;;;;;;4948488;28;19917;-86
2022/10/28 09:12:22;;;;;;;;;;;;;;;;;;4964849;28;19906;-86
2022/10/28 09:15:04;;;;;;;;;;;;;;;;;;4952180;28;19941;-86
2022/10/28 09:17:29;;;;;;;;;;;;;;;;;;4935769;28;19925;-82
2022/10/28 09:19:55;;;;;;;;;;;;;;;;;;4997517;23;19930;-79
2022/10/28 09:22:21;;;;;;;;;;;;;;;;;;5011605;28;20331;-79
2022/10/28 09:24:46;;;;;;;;;;;;;;;;;;5016059;28;19921;-80
2022/10/28 09:27:12;;;;;;;;;;;;;;;;;;4999241;28;19913;-81
2022/10/28 09:29:37;;;;;;;;;;;;;;;;;;5033439;28;19919;-80
2022/10/28 09:32:02;;;;;;;;;;;;;;;;;;5001285;28;19913;-80
2022/10/28 09:34:28;;;;;;;;;;;;;;;;;;5016702;28;19917;-81
2022/10/28 09:36:53;;;;;;;;;;;;;;;;;;5018440;28;20357;-84
2022/10/28 09:39:18;;;;;;;;;;;;;;;;;;5000315;28;19964;-81
2022/10/28 09:41:44;;;;;;;;;;;;;;;;;;5006294;28;19914;-82
2022/10/28 09:44:09;;;;;;;;;;;;;;;;;;4994532;28;20380;-83
2022/10/28 09:46:35;;;;;;;;;;;;;;;;;;4985955;28;20321;-83
2022/10/28 09:49:00;;;;;;;;;;;;;;;;;;4998247;28;20586;-83
2022/10/28 09:51:26;;;;;;;;;;;;;;;;;;4993126;28;19920;-83
2022/10/28 09:53:52;;;;;;;;;;;;;;;;;;5000438;28;20292;-83
2022/10/28 09:56:17;;;;;;;;;;;;;;;;;;5017237;28;20269;-83
2022/10/28 09:58:42;;;;;;;;;;;;;;;;;;5000983;28;20068;-83
2022/10/28 10:01:08;;;;;;;;;;;;;;;;;;5017269;28;19913;-83
2022/10/28 10:03:33;;;;;;;;;;;;;;;;;;5000259;28;19913;-83
2022/10/28 10:05:59;;;;;;;;;;;;;;;;;;4992858;28;20331;-83
2022/10/28 10:08:24;;;;;;;;;;;;;;;;;;5029937;28;19985;-83
2022/10/28 10:10:49;;;;;;;;;;;;;;;;;;5018379;28;19961;-84
2022/10/28 10:13:15;;;;;;;;;;;;;;;;;;4999002;28;19913;-83
2022/10/28 10:15:40;;;;;;;;;;;;;;;;;;5019303;28;19914;-84
2022/10/28 10:18:05;;;;;;;;;;;;;;;;;;5031466;28;20386;-84
2022/10/28 10:20:31;;;;;;;;;;;;;;;;;;5003757;28;20404;-83
2022/10/28 10:22:56;;;;;;;;;;;;;;;;;;5006874;28;19940;-84
2022/10/28 10:25:22;;;;;;;;;;;;;;;;;;5013407;28;20019;-84
2022/10/28 10:27:47;;;;;;;;;;;;;;;;;;5012386;28;19913;-84
2022/10/28 10:30:12;;;;;;;;;;;;;;;;;;5021358;28;20004;-84
2022/10/28 10:32:38;;;;;;;;;;;;;;;;;;5014609;28;20204;-84
2022/10/28 10:35:03;;;;;;;;;;;;;;;;;;4997613;28;19980;-85
2022/10/28 10:37:28;;;;;;;;;;;;;;;;;;5004938;28;19926;-85
2022/10/28 10:39:54;;;;;;;;;;;;;;;;;;5012711;28;20323;-85
2022/10/28 10:42:19;;;;;;;;;;;;;;;;;;5020170;28;20335;-83
2022/10/28 10:44:44;;;;;;;;;;;;;;;;;;5030897;28;19972;-86
2022/10/28 10:47:10;;;;;;;;;;;;;;;;;;5016853;28;19953;-82
2022/10/28 10:49:35;;;;;;;;;;;;;;;;;;5019027;28;19914;-85
2022/10/28 10:52:01;;;;;;;;;;;;;;;;;;5017963;28;20270;-84
2022/10/28 10:54:26;;;;;;;;;;;;;;;;;;5019934;28;19913;-84
2022/10/28 10:56:52;;;;;;;;;;;;;;;;;;5019476;28;20427;-84
2022/10/28 10:59:17;;;;;;;;;;;;;;;;;;5009369;28;19967;-83
2022/10/28 11:01:43;;;;;;;;;;;;;;;;;;5016632;28;19913;-84
2022/10/28 11:04:08;;;;;;;;;;;;;;;;;;5028590;28;20292;-85
2022/10/28 11:06:34;;;;;;;;;;;;;;;;;;5000292;28;19914;-84
2022/10/28 11:09:00;;;;;;;;;;;;;;;;;;5013811;28;20347;-84
2022/10/28 11:11:25;;;;;;;;;;;;;;;;;;4990564;28;19920;-82
2022/10/28 11:13:50;;;;;;;;;;;;;;;;;;5012401;28;19913;-83
2022/10/28 11:16:16;;;;;;;;;;;;;;;;;;4995437;28;19917;-81
2022/10/28 11:18:42;;;;;;;;;;;;;;;;;;4985736;28;19917;-86
2022/10/28 11:21:07;;;;;;;;;;;;;;;;;;5014940;28;19924;-88
2022/10/28 11:23:32;;;;;;;;;;;;;;;;;;5014225;28;19964;-87
2022/10/28 11:25:58;;;;;;;;;;;;;;;;;;4998790;28;19924;-88
2022/10/28 11:28:23;;;;;;;;;;;;;;;;;;5012459;28;19987;-87
2022/10/28 11:30:52;;;;;;;;;;;;;;;;;;4997651;28;19986;-84
2022/10/28 11:33:18;;;;;;;;;;;;;;;;;;5012763;28;19980;-87
2022/10/28 11:35:43;;;;;;;;;;;;;;;;;;5014451;28;20335;-87
2022/10/28 11:38:08;;;;;;;;;;;;;;;;;;5001871;28;19917;-87
2022/10/28 11:40:34;;;;;;;;;;;;;;;;;;4993092;28;19913;-86
2022/10/28 11:42:59;;;;;;;;;;;;;;;;;;4989926;28;19968;-84
2022/10/28 11:45:24;;;;;;;;;;;;;;;;;;4997633;28;20000;-85
2022/10/28 11:47:50;;;;;;;;;;;;;;;;;;5023243;28;19914;-87
2022/10/28 11:50:15;;;;;;;;;;;;;;;;;;4989539;28;19944;-86
2022/10/28 11:52:41;;;;;;;;;;;;;;;;;;5016450;28;19918;-85
2022/10/28 11:55:06;;;;;;;;;;;;;;;;;;5013730;28;19983;-85
2022/10/28 11:57:32;;;;;;;;;;;;;;;;;;4991837;28;20293;-86
2022/10/28 11:59:57;;;;;;;;;;;;;;;;;;5012474;28;20430;-84
2022/10/28 12:02:22;;;;;;;;;;;;;;;;;;5011156;28;19921;-85
2022/10/28 12:04:48;;;;;;;;;;;;;;;;;;5001685;28;19921;-82
2022/10/28 12:07:13;;;;;;;;;;;;;;;;;;5005311;28;20397;-85
2022/10/28 12:09:39;;;;;;;;;;;;;;;;;;5011092;28;19921;-86
2022/10/28 12:12:04;;;;;;;;;;;;;;;;;;4994826;28;20001;-86
2022/10/28 12:14:29;;;;;;;;;;;;;;;;;;5018171;28;19921;-85
2022/10/28 12:16:55;;;;;;;;;;;;;;;;;;4997364;28;19993;-85
2022/10/28 12:19:20;;;;;;;;;;;;;;;;;;5021719;28;19928;-85
2022/10/28 12:21:45;;;;;;;;;;;;;;;;;;4995072;28;19960;-86
2022/10/28 12:24:11;;;;;;;;;;;;;;;;;;5016641;28;19924;-84
2022/10/28 12:26:36;;;;;;;;;;;;;;;;;;5024390;28;19913;-85
2022/10/28 12:29:01;;;;;;;;;;;;;;;;;;5023607;28;20288;-85
2022/10/28 12:31:27;;;;;;;;;;;;;;;;;;5017287;28;19921;-84
2022/10/28 12:33:52;;;;;;;;;;;;;;;;;;5027951;28;19929;-86
2022/10/28 12:36:18;;;;;;;;;;;;;;;;;;5001858;28;19964;-88
2022/10/28 12:38:43;;;;;;;;;;;;;;;;;;4995863;28;19963;-88
2022/10/28 12:41:08;;;;;;;;;;;;;;;;;;5014871;28;19913;-87
2022/10/28 12:43:34;;;;;;;;;;;;;;;;;;4983611;28;19939;-85
2022/10/28 12:45:59;;;;;;;;;;;;;;;;;;5036378;28;19952;-85
2022/10/28 12:48:24;;;;;;;;;;;;;;;;;;5022108;28;20365;-84
2022/10/28 12:50:50;;;;;;;;;;;;;;;;;;5020344;28;19959;-86
2022/10/28 12:53:15;;;;;;;;;;;;;;;;;;5018280;28;19913;-85
2022/10/28 12:55:41;;;;;;;;;;;;;;;;;;5014337;28;19914;-86
2022/10/28 12:58:06;;;;;;;;;;;;;;;;;;4995235;28;20004;-84
2022/10/28 13:00:32;;;;;;;;;;;;;;;;;;5022779;28;19925;-87
2022/10/28 13:03:00;;;;;;;;;;;;;;;;;;5000855;28;19937;-85
2022/10/28 13:05:26;;;;;;;;;;;;;;;;;;5014454;28;19965;-85
2022/10/28 13:07:51;;;;;;;;;;;;;;;;;;5017506;28;19914;-86
2022/10/28 13:10:16;;;;;;;;;;;;;;;;;;4998025;28;19964;-85
2022/10/28 13:12:42;;;;;;;;;;;;;;;;;;4998267;28;19925;-85
2022/10/28 13:15:07;;;;;;;;;;;;;;;;;;5015555;28;19961;-85
2022/10/28 13:17:33;;;;;;;;;;;;;;;;;;4994339;28;20376;-85
2022/10/28 13:19:58;;;;;;;;;;;;;;;;;;4997843;28;20308;-85
2022/10/28 13:22:23;;;;;;;;;;;;;;;;;;4997690;28;19918;-85
2022/10/28 13:24:49;;;;;;;;;;;;;;;;;;5015146;28;20278;-86
2022/10/28 13:27:14;;;;;;;;;;;;;;;;;;5007747;28;19956;-85
2022/10/28 13:29:39;;;;;;;;;;;;;;;;;;5015833;28;19917;-86
2022/10/28 13:32:05;;;;;;;;;;;;;;;;;;5018920;28;20543;-85
2022/10/28 13:34:30;;;;;;;;;;;;;;;;;;5027637;28;20402;-85
2022/10/28 13:36:56;;;;;;;;;;;;;;;;;;5003691;28;19918;-84
2022/10/28 13:39:21;;;;;;;;;;;;;;;;;;5015863;28;20356;-85
2022/10/28 13:41:46;;;;;;;;;;;;;;;;;;5032066;28;20333;-81
2022/10/28 13:44:12;;;;;;;;;;;;;;;;;;5004513;28;19945;-80
2022/10/28 13:46:38;;;;;;;;;;;;;;;;;;5022584;28;19924;-80
2022/10/28 13:49:03;;;;;;;;;;;;;;;;;;4999598;28;20060;-80
2022/10/28 13:51:28;;;;;;;;;;;;;;;;;;5015473;28;19917;-80
2022/10/28 13:53:55;;;;;;;;;;;;;;;;;;5032767;28;20304;-83
2022/10/28 13:56:20;;;;;;;;;;;;;;;;;;5023512;28;20399;-84
2022/10/28 13:58:46;;;;;;;;;;;;;;;;;;4998007;28;19913;-85
2022/10/28 14:01:11;;;;;;;;;;;;;;;;;;5013791;28;19964;-83
2022/10/28 14:03:37;;;;;;;;;;;;;;;;;;5011809;28;20538;-84
2022/10/28 14:06:02;;;;;;;;;;;;;;;;;;4997763;28;19939;-85
2022/10/28 14:08:27;;;;;;;;;;;;;;;;;;5000577;28;19959;-84
2022/10/28 14:10:53;;;;;;;;;;;;;;;;;;4998077;28;19952;-85
2022/10/28 14:13:18;;;;;;;;;;;;;;;;;;4992459;28;19963;-88
2022/10/28 14:15:44;;;;;;;;;;;;;;;;;;4998132;28;20297;-88
2022/10/28 14:18:09;;;;;;;;;;;;;;;;;;5015683;28;19918;-88
2022/10/28 14:20:35;;;;;;;;;;;;;;;;;;5002520;28;19913;-88
2022/10/28 14:23:00;;;;;;;;;;;;;;;;;;4997544;28;19914;-86
2022/10/28 14:25:28;;;;;;;;;;;;;;;;;;5017627;28;19913;-88
2022/10/28 14:27:54;;;;;;;;;;;;;;;;;;5001451;28;19920;-86
2022/10/28 14:30:19;;;;;;;;;;;;;;;;;;5001211;28;19914;-86
2022/10/28 14:32:45;;;;;;;;;;;;;;;;;;5018680;28;19910;-88
2022/10/28 14:35:13;;;;;;;;;;;;;;;;;;4998347;28;19913;-87
2022/10/28 14:37:39;;;;;;;;;;;;;;;;;;5005676;28;19981;-88
2022/10/28 14:40:04;;;;;;;;;;;;;;;;;;4987479;28;19913;-87
2022/10/28 14:42:30;;;;;;;;;;;;;;;;;;5001206;28;19928;-86
2022/10/28 14:44:55;;;;;;;;;;;;;;;;;;5001383;28;19913;-90
2022/10/28 14:47:20;;;;;;;;;;;;;;;;;;5007539;28;19921;-87
2022/10/28 14:49:46;;;;;;;;;;;;;;;;;;5017658;28;20059;-87
2022/10/28 14:52:11;;;;;;;;;;;;;;;;;;5015952;28;19968;-86
2022/10/28 14:54:37;;;;;;;;;;;;;;;;;;4998621;28;19918;-86
2022/10/28 14:57:02;;;;;;;;;;;;;;;;;;4992945;28;19970;-88
2022/10/28 14:59:28;;;;;;;;;;;;;;;;;;5030718;28;19916;-88
2022/10/28 15:01:53;;;;;;;;;;;;;;;;;;5022727;28;19921;-88
2022/10/28 15:04:18;;;;;;;;;;;;;;;;;;5021271;28;20414;-88
2022/10/28 15:06:45;;;;;;;;;;;;;;;;;;4996361;28;19914;-86
2022/10/28 15:09:11;;;;;;;;;;;;;;;;;;5012939;28;20004;-87
2022/10/28 15:11:36;;;;;;;;;;;;;;;;;;5014073;28;19964;-89
2022/10/28 15:14:02;;;;;;;;;;;;;;;;;;5013823;28;19993;-88
2022/10/28 15:16:27;;;;;;;;;;;;;;;;;;4980089;28;19921;-88
2022/10/28 15:18:52;;;;;;;;;;;;;;;;;;5004479;23;19968;-82
2022/10/28 15:21:18;;;;;;;;;;;;;;;;;;4989004;28;20278;-81
2022/10/28 15:23:43;;;;;;;;;;;;;;;;;;4996381;28;20376;-79
2022/10/28 15:26:09;;;;;;;;;;;;;;;;;;4976815;28;20444;-79
2022/10/28 15:28:34;;;;;;;;;;;;;;;;;;4992560;28;19914;-77
2022/10/28 15:30:59;;;;;;;;;;;;;;;;;;4986971;28;20471;-78
2022/10/28 15:33:25;;;;;;;;;;;;;;;;;;5010785;28;20344;-77
2022/10/28 15:35:50;;;;;;;;;;;;;;;;;;5003103;28;20297;-80
2022/10/28 15:38:15;;;;;;;;;;;;;;;;;;4996933;28;19940;-79
2022/10/28 15:40:41;;;;;;;;;;;;;;;;;;5012871;28;19913;-78
2022/10/28 15:43:06;;;;;;;;;;;;;;;;;;5012313;28;19945;-79
2022/10/28 15:45:31;;;;;;;;;;;;;;;;;;4995315;28;19913;-77
2022/10/28 15:47:57;;;;;;;;;;;;;;;;;;4992579;28;19921;-79
2022/10/28 15:50:24;;;;;;;;;;;;;;;;;;4993222;28;19914;-78
2022/10/28 15:52:51;;;;;;;;;;;;;;;;;;4991055;28;20401;-79
2022/10/28 15:55:17;;;;;;;;;;;;;;;;;;5001529;28;20008;-79
2022/10/28 15:57:42;;;;;;;;;;;;;;;;;;5008668;28;20013;-79
2022/10/28 16:00:08;;;;;;;;;;;;;;;;;;5010364;28;19922;-77
2022/10/28 16:02:33;;;;;;;;;;;;;;;;;;4999359;28;20361;-81
2022/10/28 16:04:59;;;;;;;;;;;;;;;;;;5007239;28;19999;-82
2022/10/28 16:07:24;;;;;;;;;;;;;;;;;;4993574;28;19914;-83
2022/10/28 16:09:50;;;;;;;;;;;;;;;;;;5016270;28;19945;-82
2022/10/28 16:12:16;;;;;;;;;;;;;;;;;;5018421;28;19914;-79
2022/10/28 16:14:41;;;;;;;;;;;;;;;;;;5010078;28;19913;-82
2022/10/28 16:17:06;;;;;;;;;;;;;;;;;;5022044;28;20368;-81
2022/10/28 16:19:32;;;;;;;;;;;;;;;;;;5010448;28;19960;-81
2022/10/28 16:21:57;;;;;;;;;;;;;;;;;;4992514;28;20131;-81
2022/10/28 16:24:23;;;;;;;;;;;;;;;;;;4998380;28;19920;-82
2022/10/28 16:26:48;;;;;;;;;;;;;;;;;;4976065;28;19921;-82
2022/10/28 16:29:13;;;;;;;;;;;;;;;;;;4991705;28;19921;-81
2022/10/28 16:31:39;;;;;;;;;;;;;;;;;;5006204;28;19918;-82
2022/10/28 16:34:04;;;;;;;;;;;;;;;;;;5012562;28;19914;-81
2022/10/28 16:36:31;;;;;;;;;;;;;;;;;;4997609;28;19921;-81